Time;durP1;ratioP1;P1;durP2;ratioP2;P2;SDS_P1;SDS_P2;PMS_P1;PMS_P2;Temp;Humidity;BMP_temperature;BMP_pressure;BME280_temperature;BME280_humidity;BME280_pressure;Samples;Min_cycle;Max_cycle;Signal;HPM_P1;HPM_P2
2023/04/29 00:00:26;;;;;;;75.67;41.27;;;8.00;80.30;;;;;;6167801;23;20403;-92
2023/04/29 00:02:55;;;;;;;77.83;39.80;;;8.00;80.40;;;;;;6239110;23;20044;-92
2023/04/29 00:05:41;;;;;;;77.67;40.63;;;8.00;80.30;;;;;;6191098;23;20065;-92
2023/04/29 00:08:10;;;;;;;66.03;37.63;;;8.00;80.30;;;;;;6191321;23;20115;-93
2023/04/29 00:10:45;;;;;;;69.03;38.77;;;8.00;80.20;;;;;;6229411;23;20102;-92
2023/04/29 00:13:12;;;;;;;69.93;37.10;;;8.00;80.20;;;;;;6239101;23;20024;-93
2023/04/29 00:15:39;;;;;;;64.93;39.57;;;8.00;80.20;;;;;;6240965;23;20012;-92
2023/04/29 00:18:04;;;;;;;64.97;36.07;;;8.00;80.20;;;;;;6182294;23;20019;-94
2023/04/29 00:20:39;;;;;;;61.23;35.50;;;8.00;80.20;;;;;;6240082;23;20024;-94
2023/04/29 00:23:08;;;;;;;63.60;36.53;;;8.00;80.10;;;;;;6189316;23;20104;-91
2023/04/29 00:25:54;;;;;;;61.40;36.07;;;8.00;80.10;;;;;;6216970;23;20020;-91
2023/04/29 00:28:35;;;;;;;62.00;35.30;;;8.00;80.10;;;;;;6146565;23;20039;-95
2023/04/29 00:31:24;;;;;;;62.67;34.60;;;8.00;80.10;;;;;;6165745;23;20070;-94
2023/04/29 00:33:50;;;;;;;64.73;37.00;;;8.00;80.00;;;;;;6206021;23;20047;-92
2023/04/29 00:36:15;;;;;;;60.03;34.87;;;8.00;80.00;;;;;;6213968;23;20016;-93
2023/04/29 00:38:42;;;;;;;58.43;34.83;;;8.00;80.00;;;;;;6235176;23;20070;-92
2023/04/29 00:41:08;;;;;;;65.83;36.27;;;8.00;80.00;;;;;;6240647;23;20532;-92
2023/04/29 00:43:36;;;;;;;60.00;36.20;;;8.00;80.00;;;;;;6198714;23;20020;-92
2023/04/29 00:46:02;;;;;;;58.70;35.57;;;8.00;80.00;;;;;;6209980;23;20016;-92
2023/04/29 00:48:33;;;;;;;57.60;33.17;;;8.00;80.00;;;;;;6206846;23;20741;-91
2023/04/29 00:51:18;;;;;;;;;;;;;;;;;;;;;
2023/04/29 00:53:50;;;;;;;54.10;30.90;;;7.90;79.90;;;;;;6217500;23;20024;-94
2023/04/29 00:56:44;;;;;;;55.93;30.43;;;7.90;80.00;;;;;;6238833;22;20020;-93
2023/04/29 00:59:14;;;;;;;49.47;30.10;;;7.90;79.90;;;;;;6237179;23;20020;-92
2023/04/29 01:01:40;;;;;;;51.63;30.50;;;7.90;80.00;;;;;;6189683;23;20398;-92
2023/04/29 01:04:06;;;;;;;60.33;31.77;;;7.90;79.90;;;;;;6164916;23;20044;-92
2023/04/29 01:06:49;;;;;;;53.40;30.60;;;7.90;79.90;;;;;;6236473;23;20027;-92
2023/04/29 01:09:46;;;;;;;57.57;32.70;;;7.90;79.80;;;;;;6237862;23;20070;-94
2023/04/29 01:12:49;;;;;;;56.27;31.60;;;7.90;79.90;;;;;;6238048;22;20020;-92
2023/04/29 01:16:09;;;;;;;47.60;31.47;;;7.90;79.90;;;;;;6161369;23;20103;-92
2023/04/29 01:19:11;;;;;;;61.57;32.40;;;7.90;79.80;;;;;;6168338;23;20316;-93
2023/04/29 01:22:09;;;;;;;54.43;33.83;;;7.90;79.90;;;;;;6214434;23;20045;-93
2023/04/29 01:24:34;;;;;;;57.53;33.43;;;7.90;79.80;;;;;;6213515;23;20082;-92
2023/04/29 01:27:35;;;;;;;;;;;;;;;;;;;;;
2023/04/29 01:31:01;;;;;;;61.93;36.67;;;7.90;79.80;;;;;;6225556;23;20023;-92
2023/04/29 01:34:08;;;;;;;58.30;35.80;;;7.90;79.80;;;;;;6201486;22;20026;-92
2023/04/29 01:37:13;;;;;;;56.20;34.00;;;7.90;79.80;;;;;;6232621;23;20024;-94
2023/04/29 01:39:49;;;;;;;68.03;36.30;;;7.80;79.70;;;;;;6214514;23;20103;-93
2023/04/29 01:43:10;;;;;;;51.60;32.93;;;7.80;79.70;;;;;;6217879;23;20071;-91
2023/04/29 01:52:58;;;;;;;57.20;33.47;;;7.60;79.50;;;;;;6026265;23;20074;-94
2023/04/29 01:56:25;;;;;;;53.37;32.47;;;7.50;79.40;;;;;;6019985;23;20258;-94
2023/04/29 01:59:17;;;;;;;60.10;34.73;;;7.40;79.30;;;;;;5880898;23;20025;-93
2023/04/29 02:10:20;;;;;;;64.90;35.57;;;7.10;79.40;;;;;;6021694;23;20059;-91
2023/04/29 02:28:56;;;;;;;;;;;;;;;;;;;;;
2023/04/29 02:50:06;;;;;;;77.47;41.33;;;7.40;79.90;;;;;;4994454;28;20428;-93
2023/04/29 02:53:03;;;;;;;70.80;38.07;;;7.40;80.10;;;;;;4992196;28;20044;-94
2023/04/29 02:59:57;;;;;;;62.97;32.17;;;7.50;80.30;;;;;;4949129;28;20050;-94
2023/04/29 03:06:23;;;;;;;53.83;29.03;;;7.50;80.30;;;;;;4888975;29;20068;-93
2023/04/29 03:11:59;;;;;;;56.47;28.40;;;7.50;80.20;;;;;;4905793;29;20143;-92
2023/04/29 03:14:45;;;;;;;46.90;27.00;;;7.50;80.10;;;;;;4901921;29;20071;-91
2023/04/29 03:17:19;;;;;;;64.27;30.00;;;7.50;80.10;;;;;;4920893;28;20965;-91
2023/04/29 03:23:18;;;;;;;50.47;27.80;;;7.60;80.00;;;;;;4915998;28;20055;-93
2023/04/29 03:25:51;;;;;;;57.30;29.35;;;7.60;80.00;;;;;;4922280;28;20500;-94
2023/04/29 03:28:46;;;;;;;54.03;29.30;;;7.50;80.00;;;;;;4913280;28;20126;-91
2023/04/29 03:31:15;;;;;;;57.43;28.27;;;7.60;80.10;;;;;;4924380;28;20071;-92
2023/04/29 03:33:42;;;;;;;49.47;27.37;;;7.60;80.00;;;;;;4935659;28;20050;-94
2023/04/29 03:36:38;;;;;;;52.50;27.27;;;7.60;80.00;;;;;;5016778;28;20464;-94
2023/04/29 03:39:32;;;;;;;45.60;25.23;;;7.60;80.00;;;;;;5034240;28;20049;-93
2023/04/29 03:42:03;;;;;;;48.63;25.80;;;7.60;79.90;;;;;;4995760;28;20085;-93
2023/04/29 03:45:05;;;;;;;48.92;24.90;;;7.60;80.00;;;;;;4981485;28;20069;-92
2023/04/29 03:47:43;;;;;;;49.63;24.43;;;7.60;79.90;;;;;;4989575;28;20239;-92
2023/04/29 03:50:48;;;;;;;53.03;28.97;;;7.60;79.90;;;;;;5036464;28;20053;-93
2023/04/29 03:53:31;;;;;;;51.93;29.80;;;7.60;80.00;;;;;;4969135;28;20063;-95
2023/04/29 03:56:35;;;;;;;54.13;30.73;;;7.60;80.00;;;;;;4990446;28;20088;-96
2023/04/29 03:59:37;;;;;;;59.10;33.17;;;7.60;80.00;;;;;;5007172;28;20177;-93
2023/04/29 04:05:26;;;;;;;57.37;30.77;;;7.60;79.90;;;;;;4920360;28;20055;-93
2023/04/29 04:07:55;;;;;;;53.47;29.80;;;7.60;79.90;;;;;;4939492;28;20047;-93
2023/04/29 04:11:01;;;;;;;49.27;26.53;;;7.60;79.90;;;;;;4979107;28;20057;-94
2023/04/29 04:14:29;;;;;;;48.70;24.77;;;7.60;79.90;;;;;;4985995;28;20458;-95
2023/04/29 04:17:44;;;;;;;41.53;21.17;;;7.60;79.70;;;;;;4950536;28;20089;-94
2023/04/29 04:20:25;;;;;;;40.10;22.27;;;7.60;79.70;;;;;;4978768;28;20128;-96
2023/04/29 04:23:14;;;;;;;39.72;20.92;;;7.60;79.70;;;;;;4964699;28;20046;-94
2023/04/29 04:26:36;;;;;;;;;;;;;;;;;;;;;
2023/04/29 04:29:43;;;;;;;33.20;19.87;;;7.60;79.70;;;;;;4987270;28;20134;-94
2023/04/29 04:32:15;;;;;;;36.03;20.30;;;7.60;79.70;;;;;;4973651;28;20049;-94
2023/04/29 04:38:27;;;;;;;35.55;19.33;;;7.60;79.70;;;;;;4983104;28;19951;-94
2023/04/29 04:41:16;;;;;;;36.30;19.23;;;7.60;79.70;;;;;;4958762;28;20058;-92
2023/04/29 04:44:14;;;;;;;34.47;18.80;;;7.60;79.60;;;;;;4960481;28;20053;-92
2023/04/29 04:47:16;;;;;;;30.40;18.97;;;7.60;79.70;;;;;;4989644;28;20779;-93
2023/04/29 04:50:17;;;;;;;38.50;19.33;;;7.60;79.60;;;;;;4905789;28;20054;-94
2023/04/29 04:53:11;;;;;;;36.87;19.13;;;7.60;79.60;;;;;;4931703;28;20450;-94
2023/04/29 04:56:29;;;;;;;;;;;;;;;;;;;;;
2023/04/29 04:59:54;;;;;;;37.93;18.73;;;7.60;79.50;;;;;;4917148;29;20144;-93
2023/04/29 05:06:32;;;;;;;33.63;18.87;;;7.60;79.60;;;;;;4931227;29;20139;-94
2023/04/29 05:08:59;;;;;;;33.77;18.33;;;7.60;79.60;;;;;;4927980;28;20039;-93
2023/04/29 05:15:19;;;;;;;30.13;17.83;;;7.60;79.50;;;;;;4887929;29;20496;-95
2023/04/29 05:18:43;;;;;;;33.83;17.53;;;7.60;79.50;;;;;;4915667;29;20094;-94
2023/04/29 05:21:09;;;;;;;33.60;17.50;;;7.70;79.60;;;;;;4926491;29;20051;-93
2023/04/29 05:23:42;;;;;;;29.47;17.23;;;7.80;79.50;;;;;;4945897;28;20479;-93
2023/04/29 05:34:03;;;;;;;35.13;16.83;;;7.80;79.50;;;;;;4894988;28;20401;-95
2023/04/29 05:37:09;;;;;;;32.00;16.40;;;8.00;79.40;;;;;;4944758;28;20211;-95
2023/04/29 05:39:57;;;;;;;28.15;15.85;;;8.00;79.40;;;;;;4986751;28;20050;-93
2023/04/29 05:42:26;;;;;;;31.70;16.37;;;8.00;79.40;;;;;;4949300;28;20502;-94
2023/04/29 05:45:11;;;;;;;28.07;15.97;;;8.00;79.30;;;;;;4951245;28;20051;-93
2023/04/29 05:48:28;;;;;;;32.00;16.03;;;8.10;79.30;;;;;;4912290;28;20053;-94
2023/04/29 05:54:28;;;;;;;26.93;16.37;;;8.20;79.20;;;;;;4928064;28;20147;-93
2023/04/29 05:56:54;;;;;;;27.87;15.17;;;8.30;79.00;;;;;;4933382;28;20379;-93
2023/04/29 06:00:09;;;;;;;;;;;;;;;;;;;;;
2023/04/29 06:10:50;;;;;;;25.87;14.87;;;9.40;79.00;;;;;;4853199;29;20057;-92
2023/04/29 06:13:51;;;;;;;;;;;;;;;;;;;;;
2023/04/29 06:17:00;;;;;;;28.93;13.63;;;10.00;78.10;;;;;;4944883;28;20171;-93
2023/04/29 06:20:08;;;;;;;24.03;12.30;;;10.10;77.50;;;;;;4928988;29;20050;-95
2023/04/29 06:23:08;;;;;;;22.47;11.67;;;10.20;77.10;;;;;;4914012;29;20105;-95
2023/04/29 06:25:51;;;;;;;20.87;11.90;;;10.40;76.80;;;;;;4929626;29;20215;-94
2023/04/29 06:28:25;;;;;;;21.63;10.67;;;10.40;77.10;;;;;;4921942;29;20059;-93
2023/04/29 06:31:02;;;;;;;20.15;10.45;;;10.40;76.80;;;;;;4983074;28;20049;-94
2023/04/29 06:33:45;;;;;;;20.70;10.87;;;10.40;76.70;;;;;;4985448;28;20042;-94
2023/04/29 06:36:26;;;;;;;21.30;9.93;;;10.50;76.60;;;;;;4992930;28;20363;-94
2023/04/29 06:39:37;;;;;;;20.48;10.50;;;10.60;76.50;;;;;;4995466;28;20077;-94
2023/04/29 06:42:09;;;;;;;;;;;10.70;75.90;;;;;;4963401;28;20049;-92
2023/04/29 06:44:35;;;;;;;22.38;10.43;;;10.70;75.20;;;;;;4992107;28;19936;-91
2023/04/29 06:47:35;;;;;;;19.63;10.07;;;10.70;76.00;;;;;;4976442;28;20054;-93
2023/04/29 06:50:48;;;;;;;21.67;10.00;;;10.70;76.10;;;;;;4960997;28;20096;-93
2023/04/29 06:53:23;;;;;;;18.23;9.03;;;10.70;75.60;;;;;;4984513;28;20116;-94
2023/04/29 06:57:07;;;;;;;15.30;8.93;;;10.60;75.70;;;;;;4982580;28;20853;-93
2023/04/29 06:59:14;;;;;;;20.97;9.23;;;10.60;74.90;;;;;;4974190;28;20054;-92
2023/04/29 07:01:40;;;;;;;22.47;8.63;;;10.50;75.40;;;;;;4970606;28;20086;-92
2023/04/29 07:04:21;;;;;;;17.73;8.73;;;10.60;75.50;;;;;;4987915;28;20065;-96
2023/04/29 07:07:03;;;;;;;;;;;;;;;;;;;;;
2023/04/29 07:10:05;;;;;;;;;;;;;;;;;;;;;
2023/04/29 07:13:18;;;;;;;20.87;8.63;;;10.50;74.90;;;;;;4978673;28;20125;-93
2023/04/29 07:16:27;;;;;;;17.37;8.07;;;10.50;74.70;;;;;;4963615;28;20046;-94
2023/04/29 07:22:19;;;;;;;15.90;8.43;;;10.50;74.40;;;;;;4965490;28;20664;-93
2023/04/29 07:25:35;;;;;;;18.73;8.93;;;10.50;74.60;;;;;;4953579;28;20077;-96
2023/04/29 07:31:41;;;;;;;19.57;8.40;;;10.60;74.30;;;;;;4942485;28;20066;-93
2023/04/29 07:34:13;;;;;;;14.63;7.77;;;10.60;74.30;;;;;;4898771;28;20110;-96
2023/04/29 07:37:13;;;;;;;17.00;8.85;;;10.50;73.80;;;;;;4957403;28;20768;-96
2023/04/29 07:40:17;;;;;;;15.03;8.20;;;10.50;73.70;;;;;;5006926;28;20045;-95
2023/04/29 07:42:52;;;;;;;13.50;7.37;;;10.60;73.60;;;;;;4970958;28;20053;-94
2023/04/29 07:45:36;;;;;;;14.73;8.57;;;10.50;73.30;;;;;;4963713;28;20038;-94
2023/04/29 07:48:44;;;;;;;16.33;8.07;;;10.50;73.10;;;;;;5001776;28;20107;-93
2023/04/29 07:52:09;;;;;;;;;;;;;;;;;;;;;
2023/04/29 07:55:11;;;;;;;17.10;7.17;;;10.50;72.50;;;;;;5018690;28;19922;-95
2023/04/29 07:57:45;;;;;;;16.47;7.50;;;10.50;73.10;;;;;;4970356;28;20064;-95
2023/04/29 08:00:42;;;;;;;19.17;7.83;;;10.60;73.40;;;;;;4982447;28;20519;-93
2023/04/29 08:03:53;;;;;;;18.77;7.20;;;10.60;72.90;;;;;;5001630;28;20054;-95
2023/04/29 08:06:31;;;;;;;12.43;6.67;;;10.70;72.70;;;;;;5003033;28;20061;-95
2023/04/29 08:08:57;;;;;;;11.00;5.93;;;10.70;72.30;;;;;;4977699;28;20576;-87
2023/04/29 08:11:23;;;;;;;17.33;6.43;;;10.70;72.60;;;;;;4981362;28;20046;-88
2023/04/29 08:13:49;;;;;;;13.30;5.90;;;10.80;72.60;;;;;;4993095;28;20405;-88
2023/04/29 08:16:24;;;;;;;14.00;6.23;;;10.80;72.50;;;;;;4992227;28;20060;-93
2023/04/29 08:19:10;;;;;;;13.27;6.17;;;10.90;72.20;;;;;;4992821;28;20152;-94
2023/04/29 08:21:45;;;;;;;12.30;6.00;;;10.90;71.60;;;;;;4991006;28;20046;-94
2023/04/29 08:24:42;;;;;;;;;;;;;;;;;;;;;
2023/04/29 08:27:44;;;;;;;15.10;6.17;;;11.10;70.40;;;;;;4989041;28;20057;-94
2023/04/29 08:30:19;;;;;;;12.53;5.83;;;11.10;70.30;;;;;;4990322;28;20050;-93
2023/04/29 08:36:55;;;;;;;10.03;4.20;;;11.10;69.30;;;;;;4927723;28;20084;-94
2023/04/29 08:39:45;;;;;;;7.75;3.22;;;11.20;70.10;;;;;;4928923;28;20133;-95
2023/04/29 08:42:15;;;;;;;10.13;3.70;;;11.10;69.20;;;;;;4962469;28;20050;-93
2023/04/29 08:44:42;;;;;;;8.73;3.60;;;11.10;69.20;;;;;;4978316;28;20598;-91
2023/04/29 08:47:18;;;;;;;11.17;4.20;;;11.20;69.00;;;;;;4959656;28;20129;-94
2023/04/29 08:50:19;;;;;;;10.77;5.20;;;11.30;68.50;;;;;;4966539;28;20116;-94
2023/04/29 08:55:51;;;;;;;10.25;4.43;;;11.70;68.10;;;;;;4958175;28;20089;-91
2023/04/29 08:58:17;;;;;;;11.93;4.40;;;11.80;68.10;;;;;;4975033;28;20540;-92
2023/04/29 09:00:44;;;;;;;12.45;4.30;;;11.90;68.20;;;;;;5001068;28;20054;-91
2023/04/29 09:06:32;;;;;;;;;;;12.30;66.60;;;;;;4983550;28;20107;-93
2023/04/29 09:09:19;;;;;;;10.07;4.78;;;12.50;66.40;;;;;;4969989;28;20324;-94
2023/04/29 09:12:06;;;;;;;6.93;4.50;;;12.40;67.10;;;;;;4994896;28;20820;-93
2023/04/29 09:14:33;;;;;;;10.13;4.70;;;12.50;66.20;;;;;;5002602;28;20046;-91
2023/04/29 09:21:06;;;;;;;11.95;5.38;;;12.20;65.90;;;;;;4984722;28;20060;-94
2023/04/29 09:23:54;;;;;;;11.80;6.38;;;12.30;66.70;;;;;;4930757;28;20055;-92
2023/04/29 09:26:26;;;;;;;10.63;5.68;;;12.60;67.10;;;;;;4951776;28;20051;-94
2023/04/29 09:29:19;;;;;;;9.20;5.80;;;12.80;66.20;;;;;;4977309;28;20060;-91
2023/04/29 09:31:48;;;;;;;11.15;6.03;;;13.00;64.80;;;;;;4979688;28;20488;-94
2023/04/29 09:34:32;;;;;;;14.35;6.63;;;12.90;65.20;;;;;;4965323;28;20045;-94
2023/04/29 09:41:22;;;;;;;14.77;5.93;;;12.90;65.30;;;;;;4978674;28;20061;-93
2023/04/29 09:44:03;;;;;;;10.40;5.53;;;13.10;64.90;;;;;;4946473;28;20552;-94
2023/04/29 09:47:09;;;;;;;9.98;6.47;;;13.00;64.60;;;;;;4975695;28;20033;-94
2023/04/29 09:49:39;;;;;;;12.80;6.72;;;12.80;65.00;;;;;;4951787;28;20510;-92
2023/04/29 09:55:14;;;;;;;8.32;6.35;;;12.50;66.00;;;;;;4968365;28;20097;-91
2023/04/29 09:57:44;;;;;;;13.85;7.05;;;12.50;65.80;;;;;;4973968;28;20057;-93
2023/04/29 10:00:21;;;;;;;13.15;7.13;;;12.40;65.70;;;;;;4975962;28;20067;-94
2023/04/29 10:03:08;;;;;;;11.40;5.88;;;12.30;65.40;;;;;;4986238;28;20038;-92
2023/04/29 10:05:34;;;;;;;11.30;6.68;;;12.30;65.10;;;;;;5004475;28;20132;-93
2023/04/29 10:08:00;;;;;;;13.38;7.10;;;12.40;65.80;;;;;;4976528;28;20133;-92
2023/04/29 10:10:56;;;;;;;;;;;;;;;;;;;;;
2023/04/29 10:14:02;;;;;;;13.25;6.10;;;12.50;65.40;;;;;;4946650;28;20062;-94
2023/04/29 10:20:13;;;;;;;13.90;5.18;;;12.80;64.60;;;;;;4976811;28;20179;-93
2023/04/29 10:23:24;;;;;;;;;;;;;;;;;;;;;
2023/04/29 10:26:36;;;;;;;8.38;4.07;;;13.00;64.10;;;;;;4980597;28;20927;-95
2023/04/29 10:29:45;;;;;;;8.43;2.90;;;13.20;62.60;;;;;;4992018;28;20041;-95
2023/04/29 10:32:17;;;;;;;3.33;1.85;;;13.50;64.30;;;;;;4980987;28;20194;-94
2023/04/29 10:38:54;;;;;;;9.88;2.88;;;13.40;61.30;;;;;;4946354;28;20139;-93
2023/04/29 10:41:51;;;;;;;5.20;3.00;;;13.30;63.80;;;;;;4959399;28;20065;-95
2023/04/29 10:44:20;;;;;;;7.63;3.42;;;13.30;62.30;;;;;;4969232;28;20152;-94
2023/04/29 10:47:33;;;;;;;8.73;3.53;;;13.30;63.70;;;;;;4962155;28;20048;-95
2023/04/29 10:50:11;;;;;;;6.75;2.90;;;13.30;62.60;;;;;;4908494;28;20543;-92
2023/04/29 10:53:09;;;;;;;6.82;3.28;;;13.10;63.10;;;;;;4941528;28;20066;-93
2023/04/29 10:56:42;;;;;;;6.85;1.92;;;13.10;62.50;;;;;;4993930;28;20060;-95
2023/04/29 10:59:16;;;;;;;4.07;2.15;;;13.10;60.60;;;;;;4947905;28;20060;-91
2023/04/29 11:02:23;;;;;;;7.43;2.90;;;13.00;61.90;;;;;;4990797;28;20053;-94
2023/04/29 11:05:16;;;;;;;10.32;2.70;;;13.00;62.50;;;;;;4958937;28;20042;-94
2023/04/29 11:19:18;;;;;;;7.85;2.70;;;12.90;62.80;;;;;;4944405;28;20068;-92
2023/04/29 11:22:16;;;;;;;4.93;2.38;;;12.90;62.70;;;;;;4984750;28;20061;-94
2023/04/29 11:24:59;;;;;;;4.78;2.67;;;12.80;61.70;;;;;;4993661;28;20049;-95
2023/04/29 11:27:54;;;;;;;;;;;;;;;;;;;;;
2023/04/29 11:30:29;;;;;;;8.35;2.97;;;12.70;61.90;;;;;;5000312;28;20077;-91
2023/04/29 11:32:58;;;;;;;6.78;2.67;;;12.70;62.70;;;;;;4975705;28;20070;-92
2023/04/29 11:35:33;;;;;;;7.85;3.00;;;12.70;62.80;;;;;;4973181;28;20042;-94
2023/04/29 11:38:14;;;;;;;8.05;3.13;;;12.70;63.20;;;;;;4977694;28;20683;-94
2023/04/29 11:44:20;;;;;;;7.75;2.33;;;12.60;62.70;;;;;;4991273;28;19995;-94
2023/04/29 11:46:48;;;;;;;7.60;2.25;;;12.60;63.30;;;;;;5004984;28;20041;-95
2023/04/29 11:49:17;;;;;;;7.80;2.50;;;12.50;63.20;;;;;;4991326;28;20078;-94
2023/04/29 11:51:43;;;;;;;5.35;2.35;;;12.50;63.00;;;;;;4978230;28;20058;-94
2023/04/29 11:54:09;;;;;;;6.63;2.10;;;12.50;62.70;;;;;;4963241;28;20098;-94
2023/04/29 11:56:41;;;;;;;4.47;1.90;;;12.60;62.70;;;;;;4982371;28;20721;-96
2023/04/29 11:59:39;;;;;;;5.32;1.92;;;12.60;62.20;;;;;;4927910;28;20114;-92
2023/04/29 12:02:40;;;;;;;8.15;2.17;;;12.50;59.80;;;;;;4962427;28;20124;-92
2023/04/29 12:06:34;;;;;;;;;;;;;;;;;;;;;
2023/04/29 12:09:56;;;;;;;6.63;2.50;;;12.60;62.50;;;;;;4945026;28;20051;-93
2023/04/29 12:12:35;;;;;;;5.72;1.80;;;12.80;62.60;;;;;;4913144;28;20061;-92
2023/04/29 12:15:40;;;;;;;4.20;2.03;;;12.90;62.30;;;;;;4913856;29;20081;-94
2023/04/29 12:18:26;;;;;;;4.43;2.37;;;12.90;61.10;;;;;;4875337;29;20044;-94
2023/04/29 12:22:07;;;;;;;4.72;2.10;;;12.90;61.10;;;;;;4892707;29;20291;-94
2023/04/29 12:25:53;;;;;;;;;;;;;;;;;;;;;
2023/04/29 12:32:24;;;;;;;7.43;1.95;;;13.00;59.80;;;;;;4736001;30;20061;-93
2023/04/29 12:35:28;;;;;;;2.90;1.67;;;13.10;60.70;;;;;;4802859;29;20057;-94
2023/04/29 12:45:27;;;;;;;4.63;1.70;;;13.10;60.70;;;;;;4920633;28;20514;-94
2023/04/29 12:48:11;;;;;;;3.22;1.83;;;13.10;60.50;;;;;;4899851;28;20054;-93
2023/04/29 12:50:58;;;;;;;5.78;1.90;;;13.20;60.70;;;;;;4976498;28;20129;-96
2023/04/29 12:57:38;;;;;;;6.07;2.22;;;13.20;59.50;;;;;;4978975;28;20057;-93
2023/04/29 13:00:38;;;;;;;;;;;;;;;;;;;;;
2023/04/29 13:07:11;;;;;;;;;;;;;;;;;;;;;
2023/04/29 13:10:12;;;;;;;7.72;3.30;;;13.30;61.50;;;;;;5012303;28;20046;-95
2023/04/29 13:13:39;;;;;;;8.40;3.63;;;13.40;62.20;;;;;;4984955;28;20062;-95
2023/04/29 13:16:44;;;;;;;8.73;4.00;;;13.50;62.70;;;;;;4981084;28;20121;-92
2023/04/29 13:19:19;;;;;;;9.02;4.57;;;13.50;63.20;;;;;;4967831;28;20053;-95
2023/04/29 13:21:57;;;;;;;7.78;4.57;;;13.40;63.40;;;;;;4999665;28;20050;-96
2023/04/29 13:24:23;;;;;;;7.88;4.93;;;13.40;63.50;;;;;;4963562;28;20057;-94
2023/04/29 13:27:32;;;;;;;11.48;5.63;;;13.40;63.70;;;;;;5028140;28;20056;-96
2023/04/29 13:30:01;;;;;;;10.38;5.57;;;13.30;63.50;;;;;;5013920;28;20070;-94
2023/04/29 13:32:26;;;;;;;10.88;6.95;;;13.30;63.50;;;;;;4996945;28;20513;-94
2023/04/29 13:34:58;;;;;;;;;;;13.10;63.30;;;;;;4981034;28;20045;-90
2023/04/29 13:37:50;;;;;;;12.27;7.60;;;13.10;62.30;;;;;;4993137;28;20268;-96
2023/04/29 13:40:23;;;;;;;11.45;7.90;;;13.10;62.60;;;;;;5005344;28;20505;-95
2023/04/29 13:42:49;;;;;;;13.57;8.30;;;13.10;63.10;;;;;;5010653;28;20042;-90
2023/04/29 13:45:17;;;;;;;14.60;8.40;;;13.10;63.60;;;;;;4975907;28;20052;-93
2023/04/29 13:48:07;;;;;;;10.52;7.60;;;13.10;63.60;;;;;;4969123;28;20047;-95
2023/04/29 13:50:43;;;;;;;13.43;8.05;;;13.20;63.70;;;;;;4986109;28;20045;-95
2023/04/29 13:53:16;;;;;;;11.50;7.15;;;13.30;63.70;;;;;;4987241;28;20387;-93
2023/04/29 13:56:00;;;;;;;12.38;6.65;;;13.40;63.90;;;;;;5008457;28;20112;-95
2023/04/29 13:58:49;;;;;;;11.00;6.78;;;13.40;64.00;;;;;;4991566;28;20398;-93
2023/04/29 14:01:14;;;;;;;9.82;6.15;;;13.50;64.50;;;;;;5009160;28;20049;-90
2023/04/29 14:04:05;;;;;;;10.10;6.32;;;13.50;64.70;;;;;;4993722;28;20058;-93
2023/04/29 14:06:51;;;;;;;9.93;6.18;;;13.60;64.60;;;;;;4991808;28;20041;-96
2023/04/29 14:09:39;;;;;;;7.68;5.68;;;13.60;64.30;;;;;;4972239;28;20053;-93
2023/04/29 14:12:08;;;;;;;8.57;5.15;;;13.50;63.90;;;;;;4986694;28;20505;-93
2023/04/29 14:14:46;;;;;;;9.73;5.35;;;13.30;64.40;;;;;;4988890;28;20471;-92
2023/04/29 14:21:10;;;;;;;7.88;4.40;;;13.50;64.70;;;;;;4962020;28;20477;-94
2023/04/29 14:23:38;;;;;;;;;;;13.90;65.00;;;;;;4997773;28;20150;-91
2023/04/29 14:26:08;;;;;;;5.45;4.05;;;13.90;64.00;;;;;;4982546;28;19922;-92
2023/04/29 14:28:39;;;;;;;10.65;4.57;;;13.90;64.90;;;;;;4997622;28;20105;-94
2023/04/29 14:31:07;;;;;;;9.85;4.43;;;13.90;64.60;;;;;;4997943;28;20125;-92
2023/04/29 14:33:35;;;;;;;7.40;4.60;;;13.90;64.50;;;;;;4999390;28;20062;-92
2023/04/29 14:36:01;;;;;;;7.47;4.00;;;13.90;64.80;;;;;;5008131;28;20050;-92
2023/04/29 14:38:33;;;;;;;7.68;4.35;;;13.90;64.60;;;;;;5010355;28;20064;-94
2023/04/29 14:40:59;;;;;;;10.15;4.88;;;13.80;64.30;;;;;;4990970;28;20130;-92
2023/04/29 14:43:37;;;;;;;6.45;4.88;;;13.60;64.20;;;;;;4986264;28;20081;-95
2023/04/29 14:46:13;;;;;;;7.43;5.10;;;13.50;64.60;;;;;;5011617;28;20405;-92
2023/04/29 14:48:42;;;;;;;8.60;5.72;;;13.50;64.70;;;;;;4965162;28;20050;-91
2023/04/29 14:51:15;;;;;;;9.57;5.43;;;13.30;64.70;;;;;;4995036;28;20128;-95
2023/04/29 14:54:21;;;;;;;;;;;;;;;;;;;;;
2023/04/29 14:57:42;;;;;;;11.88;7.05;;;13.00;64.90;;;;;;4990092;28;20067;-95
2023/04/29 15:01:11;;;;;;;11.38;6.88;;;13.00;65.00;;;;;;4956434;28;20126;-94
2023/04/29 15:10:52;;;;;;;8.43;5.45;;;12.90;65.10;;;;;;4991326;28;20057;-94
2023/04/29 15:13:26;;;;;;;8.98;4.70;;;12.70;64.70;;;;;;4967213;28;20120;-95
2023/04/29 15:16:37;;;;;;;9.05;5.65;;;12.50;65.70;;;;;;4999344;28;20046;-94
2023/04/29 15:19:16;;;;;;;7.45;4.68;;;12.40;66.10;;;;;;4983286;28;20049;-93
2023/04/29 15:22:05;;;;;;;7.38;4.30;;;12.30;66.00;;;;;;5012037;28;20085;-94
2023/04/29 15:25:37;;;;;;;;;;;;;;;;;;;;;
2023/04/29 15:28:31;;;;;;;6.05;4.30;;;12.30;66.10;;;;;;4971680;28;20308;-94
2023/04/29 15:31:31;;;;;;;6.38;4.40;;;12.20;66.10;;;;;;4944176;28;20053;-95
2023/04/29 15:33:57;;;;;;;5.68;3.78;;;12.10;66.50;;;;;;4971206;28;20038;-94
2023/04/29 15:36:52;;;;;;;6.07;4.30;;;12.10;66.60;;;;;;4948585;28;20055;-95
2023/04/29 15:39:18;;;;;;;6.88;4.32;;;12.10;66.70;;;;;;4935733;28;20694;-94
2023/04/29 15:41:44;;;;;;;7.68;3.90;;;12.00;66.80;;;;;;4960903;28;20069;-93
2023/04/29 15:44:10;;;;;;;8.77;4.07;;;12.00;67.00;;;;;;4955942;28;20569;-90
2023/04/29 15:46:36;;;;;;;7.00;3.80;;;12.00;67.20;;;;;;4947117;28;20651;-92
2023/04/29 15:49:05;;;;;;;7.35;3.20;;;12.00;67.20;;;;;;4948210;28;20059;-90
2023/04/29 15:51:34;;;;;;;4.88;3.15;;;11.90;67.10;;;;;;4942663;28;20130;-93
2023/04/29 15:54:03;;;;;;;5.50;3.50;;;11.90;67.30;;;;;;4966475;28;20057;-91
2023/04/29 16:01:03;;;;;;;7.00;3.47;;;11.70;67.20;;;;;;4972173;28;20463;-94
2023/04/29 16:04:39;;;;;;;7.75;4.32;;;11.50;67.60;;;;;;5014246;28;20053;-95
2023/04/29 16:07:40;;;;;;;8.88;4.78;;;11.30;68.30;;;;;;5007292;28;20068;-92
2023/04/29 16:10:30;;;;;;;7.30;4.00;;;11.20;68.40;;;;;;4997757;28;20073;-93
2023/04/29 16:12:59;;;;;;;6.68;3.80;;;11.10;68.20;;;;;;4943462;28;20055;-89
2023/04/29 16:15:41;;;;;;;5.45;3.58;;;11.10;68.30;;;;;;4937792;28;20058;-92
2023/04/29 16:18:07;;;;;;;8.27;3.87;;;11.00;68.30;;;;;;4932500;28;20063;-92
2023/04/29 16:20:36;;;;;;;5.27;3.40;;;10.90;68.40;;;;;;4940486;28;20038;-94
2023/04/29 16:23:31;;;;;;;6.80;3.47;;;10.80;68.40;;;;;;4953715;28;20045;-94
2023/04/29 16:26:57;;;;;;;6.68;3.63;;;10.70;68.60;;;;;;4954806;28;20070;-95
2023/04/29 16:30:07;;;;;;;6.93;3.93;;;10.60;68.70;;;;;;4796220;29;20081;-94
2023/04/29 16:32:46;;;;;;;;;;;;;;;;;;;;;
2023/04/29 16:35:25;;;;;;;6.10;3.57;;;10.40;68.90;;;;;;4806004;29;20077;-95
2023/04/29 16:37:54;;;;;;;6.33;4.20;;;10.40;69.10;;;;;;4839606;29;20100;-92
2023/04/29 16:40:26;;;;;;;6.60;4.20;;;10.40;69.20;;;;;;4917076;28;20094;-91
2023/04/29 16:43:21;;;;;;;7.07;3.67;;;10.40;69.20;;;;;;4940453;28;20070;-92
2023/04/29 16:45:57;;;;;;;5.67;3.77;;;10.40;69.60;;;;;;5011335;28;20050;-91
2023/04/29 16:51:21;;;;;;;4.93;3.23;;;10.40;69.50;;;;;;4938204;28;21398;-94
2023/04/29 16:54:02;;;;;;;6.40;3.90;;;10.30;69.50;;;;;;5003624;28;20072;-92
2023/04/29 16:56:31;;;;;;;6.50;3.70;;;10.20;69.50;;;;;;4973734;28;20109;-94
2023/04/29 16:58:59;;;;;;;8.13;4.63;;;10.20;69.60;;;;;;4988984;28;20057;-93
2023/04/29 17:01:37;;;;;;;7.13;4.60;;;10.20;69.60;;;;;;4992804;28;20137;-95
2023/04/29 17:04:04;;;;;;;6.53;4.13;;;10.20;69.60;;;;;;4980645;28;20050;-95
2023/04/29 17:06:41;;;;;;;;;;;;;;;;;;;;;
2023/04/29 17:09:36;;;;;;;6.20;4.40;;;10.20;69.80;;;;;;5002823;28;20049;-92
2023/04/29 17:15:19;;;;;;;9.82;5.20;;;10.20;69.70;;;;;;4982283;28;20104;-93
2023/04/29 17:18:03;;;;;;;;;;;10.20;69.70;;;;;;5008051;28;20042;-93
2023/04/29 17:20:32;;;;;;;8.17;4.70;;;10.20;69.50;;;;;;4976632;28;19925;-92
2023/04/29 17:23:21;;;;;;;7.13;4.10;;;10.20;69.50;;;;;;4995716;28;20069;-92
2023/04/29 17:25:47;;;;;;;5.53;3.70;;;10.30;69.20;;;;;;5001951;28;20053;-93
2023/04/29 17:29:11;;;;;;;5.77;4.03;;;10.20;69.10;;;;;;4993552;28;20101;-96
2023/04/29 17:31:43;;;;;;;8.43;4.30;;;10.20;69.20;;;;;;4970701;28;20162;-96
2023/04/29 17:38:04;;;;;;;;;;;;;;;;;;;;;
2023/04/29 17:41:35;;;;;;;;;;;;;;;;;;;;;
2023/04/29 17:48:38;;;;;;;;;;;;;;;;;;;;;
2023/04/29 17:52:06;;;;;;;6.17;3.90;;;10.00;69.20;;;;;;4790117;29;20700;-93
2023/04/29 18:04:39;;;;;;;9.47;4.83;;;9.90;69.90;;;;;;4739986;30;20402;-93
2023/04/29 18:08:21;;;;;;;9.77;4.87;;;9.70;70.20;;;;;;4727673;30;20054;-93
2023/04/29 18:15:22;;;;;;;13.07;6.07;;;9.60;71.10;;;;;;4751763;29;20594;-94
2023/04/29 18:19:27;;;;;;;15.52;6.55;;;9.50;71.10;;;;;;4735757;30;20204;-95
2023/04/29 18:22:13;;;;;;;15.47;7.13;;;9.40;71.60;;;;;;4738158;30;20238;-93